Rome, Italy
Current Conditions -  °F | °C
As of 7:15 PM on Thursday 30 Oct 2014 (Local Time) from LIRA Reporting Station
Few Clouds Few Clouds  
Wind Chill: 59°   Ceiling: Unl
Heat Index: 59°   Visibility: 6mi
Dew Point: 37°   Wind: 2mph
Humidity: 45%   Direction: 360°N
Pressure: 30.12"   Gusts: NA
Location:  41.9°N, 12.48°E
Report Text: LIRA 301815Z 36002KT 9999 FEW080 15/03 Q1020
Loading
Personal Weather Stations






























Interactive Weather Map
Tropical Storm Tracking
New forecast layout! Learn more

10-Day Weather Forecast

Advertisements
Track Severe Weather on mobile